Time;durP1;ratioP1;P1;durP2;ratioP2;P2;SDS_P1;SDS_P2;PMS_P1;PMS_P2;Temp;Humidity;BMP_temperature;BMP_pressure;BME280_temperature;BME280_humidity;BME280_pressure;Samples;Min_cycle;Max_cycle;Signal;HPM_P1;HPM_P2
2021/07/06 00:01:54;;;;;;;1.60;0.95;;;25.30;60.60;;;;;;5053739;28;20029;-44
2021/07/06 00:04:20;;;;;;;3.17;1.80;;;25.30;60.60;;;;;;5052447;28;20025;-45
2021/07/06 00:06:45;;;;;;;1.70;1.20;;;25.40;60.70;;;;;;5052765;28;20040;-47
2021/07/06 00:09:11;;;;;;;3.00;1.10;;;25.40;60.70;;;;;;5058939;28;20033;-45
2021/07/06 00:11:37;;;;;;;1.77;1.20;;;25.30;60.60;;;;;;5050661;28;20033;-44
2021/07/06 00:14:03;;;;;;;2.20;1.00;;;25.30;60.60;;;;;;5051533;28;20020;-44
2021/07/06 00:16:29;;;;;;;3.53;1.27;;;25.30;60.60;;;;;;5058954;28;20371;-44
2021/07/06 00:18:55;;;;;;;1.88;1.13;;;25.30;60.60;;;;;;5051696;28;20454;-44
2021/07/06 00:21:20;;;;;;;1.90;1.35;;;25.30;60.60;;;;;;5051004;28;20096;-44
2021/07/06 00:23:46;;;;;;;2.70;1.00;;;25.30;60.60;;;;;;5033931;28;20036;-44
2021/07/06 00:26:12;;;;;;;1.55;1.27;;;25.30;60.50;;;;;;5056746;28;20454;-44
2021/07/06 00:28:37;;;;;;;1.50;1.08;;;25.30;60.50;;;;;;5069708;28;20033;-44
2021/07/06 00:31:03;;;;;;;2.13;1.30;;;25.30;60.50;;;;;;5063419;28;20102;-44
2021/07/06 00:33:30;;;;;;;2.53;1.23;;;25.30;60.50;;;;;;5070195;28;20024;-44
2021/07/06 00:36:01;;;;;;;1.38;0.93;;;25.30;60.50;;;;;;5067487;28;20116;-45
2021/07/06 00:38:28;;;;;;;1.30;0.93;;;25.30;60.50;;;;;;5050828;28;20031;-44
2021/07/06 00:40:57;;;;;;;1.73;0.90;;;25.30;60.50;;;;;;5050974;28;20108;-46
2021/07/06 00:43:23;;;;;;;1.45;0.98;;;25.30;60.60;;;;;;5055706;28;20029;-47
2021/07/06 00:45:49;;;;;;;1.42;0.90;;;25.30;60.50;;;;;;5066342;28;20025;-44
2021/07/06 00:48:15;;;;;;;1.45;0.95;;;25.30;60.50;;;;;;5055368;28;20041;-44
2021/07/06 00:50:41;;;;;;;1.40;0.80;;;25.30;60.50;;;;;;5054844;28;20380;-44
2021/07/06 00:53:07;;;;;;;1.08;0.80;;;25.30;60.50;;;;;;5055231;28;20017;-47
2021/07/06 00:55:33;;;;;;;1.60;1.00;;;25.30;60.40;;;;;;5059269;28;20041;-44
2021/07/06 00:57:59;;;;;;;1.15;0.90;;;25.30;60.40;;;;;;5068033;28;20013;-48
2021/07/06 01:00:26;;;;;;;1.13;0.95;;;25.30;60.40;;;;;;5054041;28;20445;-46
2021/07/06 01:02:52;;;;;;;1.65;1.10;;;25.30;60.40;;;;;;5055871;28;20445;-45
2021/07/06 01:05:23;;;;;;;1.75;0.77;;;25.30;60.30;;;;;;5068739;28;20025;-49
2021/07/06 01:07:49;;;;;;;1.47;0.80;;;25.20;60.30;;;;;;5056811;28;20513;-44
2021/07/06 01:10:16;;;;;;;2.05;0.95;;;25.30;60.30;;;;;;5060615;28;20035;-44
2021/07/06 01:12:43;;;;;;;1.27;0.90;;;25.20;60.30;;;;;;5061850;28;20517;-46
2021/07/06 01:15:22;;;;;;;2.45;1.05;;;25.20;60.30;;;;;;5066504;28;20463;-44
2021/07/06 01:18:17;;;;;;;1.55;0.98;;;25.30;60.30;;;;;;5065765;28;20108;-46
2021/07/06 01:20:48;;;;;;;1.50;0.90;;;25.30;60.30;;;;;;5054041;28;20043;-46
2021/07/06 01:23:16;;;;;;;1.50;1.17;;;25.20;60.20;;;;;;5061817;28;20074;-44
2021/07/06 01:25:42;;;;;;;1.02;0.90;;;25.30;60.30;;;;;;5071546;28;20039;-47
2021/07/06 01:28:08;;;;;;;1.52;1.00;;;25.30;60.30;;;;;;5073516;28;20433;-47
2021/07/06 01:30:35;;;;;;;1.00;0.80;;;25.30;60.20;;;;;;5057468;28;20116;-46
2021/07/06 01:33:01;;;;;;;1.92;0.90;;;25.30;60.20;;;;;;5055684;28;20025;-47
2021/07/06 01:35:27;;;;;;;2.08;0.90;;;25.20;60.20;;;;;;5062946;28;20111;-45
2021/07/06 01:37:55;;;;;;;1.63;1.00;;;25.20;60.10;;;;;;5073742;28;20095;-47
2021/07/06 01:40:22;;;;;;;1.33;1.00;;;25.20;60.10;;;;;;5073779;28;20025;-52
2021/07/06 01:42:49;;;;;;;1.13;0.90;;;25.20;60.10;;;;;;5062513;28;20409;-47
2021/07/06 01:45:17;;;;;;;1.80;0.80;;;25.20;60.10;;;;;;5067141;28;20056;-44
2021/07/06 01:47:48;;;;;;;1.25;0.82;;;25.20;60.10;;;;;;5073107;28;20044;-48
2021/07/06 01:50:20;;;;;;;2.43;1.00;;;25.20;60.10;;;;;;5073526;28;20063;-46
2021/07/06 01:52:54;;;;;;;1.25;0.88;;;25.20;60.10;;;;;;5073365;28;20021;-45
2021/07/06 01:55:22;;;;;;;1.15;0.80;;;25.20;60.00;;;;;;5070546;28;20020;-53
2021/07/06 01:57:49;;;;;;;2.35;0.75;;;25.20;60.00;;;;;;5052918;28;20537;-47
2021/07/06 02:00:17;;;;;;;1.73;1.02;;;25.20;60.00;;;;;;5060764;28;20075;-46
2021/07/06 02:02:44;;;;;;;1.35;0.93;;;25.20;60.00;;;;;;5054324;28;20037;-45
2021/07/06 02:05:18;;;;;;;1.65;0.80;;;25.20;60.00;;;;;;5054737;28;20052;-44
2021/07/06 02:07:48;;;;;;;1.10;0.80;;;25.20;60.00;;;;;;5069441;28;20035;-44
2021/07/06 02:10:16;;;;;;;1.10;0.80;;;25.20;60.00;;;;;;5054879;28;20029;-44
2021/07/06 02:12:41;;;;;;;1.13;0.80;;;25.20;60.00;;;;;;5056426;28;20020;-44
2021/07/06 02:15:10;;;;;;;1.63;0.90;;;25.20;60.00;;;;;;5058210;28;20029;-45
2021/07/06 02:17:36;;;;;;;2.28;0.80;;;25.20;60.00;;;;;;5054570;28;20032;-44
2021/07/06 02:20:05;;;;;;;1.00;0.90;;;25.20;60.00;;;;;;5071308;28;20033;-44
2021/07/06 02:22:31;;;;;;;1.77;0.85;;;25.20;60.00;;;;;;5071540;28;20053;-44
2021/07/06 02:24:57;;;;;;;1.52;0.80;;;25.20;60.00;;;;;;5065858;28;20146;-44
2021/07/06 02:27:22;;;;;;;1.40;0.80;;;25.20;60.00;;;;;;5053049;28;20087;-50
2021/07/06 02:29:48;;;;;;;1.70;1.00;;;25.20;59.90;;;;;;5053043;28;20090;-44
2021/07/06 02:32:13;;;;;;;1.90;0.90;;;25.20;60.50;;;;;;5054253;28;20463;-45
2021/07/06 02:34:39;;;;;;;1.05;0.80;;;25.20;60.00;;;;;;5071664;28;20108;-44
2021/07/06 02:37:05;;;;;;;1.63;0.80;;;25.20;59.90;;;;;;5072160;28;20473;-44
2021/07/06 02:39:30;;;;;;;1.35;0.85;;;25.20;59.80;;;;;;5070806;28;20025;-44
2021/07/06 02:41:56;;;;;;;1.25;1.00;;;25.20;59.80;;;;;;5071890;28;20024;-44
2021/07/06 02:44:21;;;;;;;0.98;0.80;;;25.20;59.80;;;;;;5052765;28;20037;-51
2021/07/06 02:46:47;;;;;;;1.65;0.90;;;25.20;59.90;;;;;;5052454;28;20041;-44
2021/07/06 02:49:13;;;;;;;1.00;0.73;;;25.20;59.80;;;;;;5053978;28;20087;-45
2021/07/06 02:51:38;;;;;;;1.33;0.90;;;25.20;59.80;;;;;;5054086;28;20029;-43
2021/07/06 02:54:04;;;;;;;0.95;0.80;;;25.20;59.80;;;;;;5064544;28;20025;-44
2021/07/06 02:56:29;;;;;;;0.98;0.70;;;25.20;59.80;;;;;;5071393;28;20032;-45
2021/07/06 02:58:55;;;;;;;1.15;0.90;;;25.20;59.80;;;;;;5070251;28;20095;-44
2021/07/06 03:01:21;;;;;;;1.30;0.85;;;25.20;59.80;;;;;;5063523;28;20539;-44
2021/07/06 03:03:46;;;;;;;1.15;0.88;;;25.20;59.70;;;;;;5071529;28;20035;-46
2021/07/06 03:06:12;;;;;;;1.52;0.93;;;25.20;59.70;;;;;;5053756;28;20091;-44
2021/07/06 03:08:38;;;;;;;2.72;0.90;;;25.20;59.70;;;;;;5055806;28;20463;-44
2021/07/06 03:11:04;;;;;;;1.05;0.88;;;25.20;59.70;;;;;;5052321;28;20033;-44
2021/07/06 03:13:29;;;;;;;1.98;1.00;;;25.20;59.70;;;;;;5070368;28;20037;-47
2021/07/06 03:15:55;;;;;;;1.33;0.93;;;25.10;59.70;;;;;;5071809;28;20032;-45
2021/07/06 03:18:20;;;;;;;0.82;0.60;;;25.20;59.60;;;;;;5063301;28;20059;-48
2021/07/06 03:20:48;;;;;;;1.48;0.93;;;25.10;59.60;;;;;;5052442;28;20045;-46
2021/07/06 03:23:14;;;;;;;1.60;0.80;;;25.20;59.60;;;;;;5052579;28;20025;-46
2021/07/06 03:25:41;;;;;;;1.23;0.90;;;25.10;59.60;;;;;;5051598;28;20040;-46
2021/07/06 03:28:06;;;;;;;1.02;0.80;;;25.10;59.50;;;;;;5059478;28;20493;-44
2021/07/06 03:30:34;;;;;;;1.38;0.90;;;25.10;59.60;;;;;;5070305;28;20037;-46
2021/07/06 03:33:01;;;;;;;1.00;0.90;;;25.10;59.50;;;;;;5070539;28;20020;-44
2021/07/06 03:35:28;;;;;;;1.40;0.77;;;25.10;59.50;;;;;;5053681;28;20025;-52
2021/07/06 03:37:54;;;;;;;1.60;1.08;;;25.10;59.50;;;;;;5057580;28;20029;-44
2021/07/06 03:40:20;;;;;;;1.52;0.82;;;25.10;59.50;;;;;;5071291;28;20527;-48
2021/07/06 03:42:46;;;;;;;2.55;0.90;;;25.10;59.40;;;;;;5070682;28;20020;-46
2021/07/06 03:45:13;;;;;;;1.42;0.85;;;25.10;59.50;;;;;;5071476;28;20032;-44
2021/07/06 03:47:39;;;;;;;1.50;0.70;;;25.10;59.40;;;;;;5066719;28;20043;-47
2021/07/06 03:50:07;;;;;;;1.83;0.80;;;25.10;59.40;;;;;;5059671;28;20424;-46
2021/07/06 03:52:34;;;;;;;1.35;0.70;;;25.10;59.40;;;;;;5062201;28;20112;-46
2021/07/06 03:55:00;;;;;;;1.83;1.00;;;25.10;59.30;;;;;;5070827;28;20477;-45
2021/07/06 03:57:29;;;;;;;1.40;0.80;;;25.10;59.30;;;;;;5066587;28;20052;-53
2021/07/06 04:00:00;;;;;;;1.17;0.80;;;25.10;59.30;;;;;;5051956;28;20442;-49
2021/07/06 04:02:25;;;;;;;1.00;0.90;;;25.10;59.30;;;;;;5058134;28;20033;-52
2021/07/06 04:04:51;;;;;;;1.10;0.75;;;25.10;59.30;;;;;;5033359;28;20036;-45
2021/07/06 04:07:17;;;;;;;0.90;0.75;;;25.10;59.30;;;;;;5054733;28;20032;-45
2021/07/06 04:09:43;;;;;;;1.02;0.90;;;25.10;59.30;;;;;;5056527;28;20386;-47
2021/07/06 04:12:09;;;;;;;1.38;0.90;;;25.10;60.00;;;;;;5051721;28;20037;-45
2021/07/06 04:14:35;;;;;;;1.17;0.98;;;25.10;59.30;;;;;;5038023;28;20035;-44
2021/07/06 04:17:01;;;;;;;1.00;0.90;;;25.10;59.20;;;;;;5070006;28;20037;-46
2021/07/06 04:19:27;;;;;;;1.25;0.88;;;25.10;59.20;;;;;;5050658;28;20086;-52
2021/07/06 04:21:52;;;;;;;1.70;0.80;;;25.10;59.30;;;;;;5051492;28;20017;-44
2021/07/06 04:24:18;;;;;;;0.80;0.70;;;25.10;59.20;;;;;;5051850;28;20032;-45
2021/07/06 04:26:44;;;;;;;5.22;1.20;;;25.10;59.30;;;;;;5050718;28;20143;-44
2021/07/06 04:29:10;;;;;;;1.35;0.80;;;25.10;59.20;;;;;;5053262;28;20389;-45
2021/07/06 04:31:36;;;;;;;2.38;0.98;;;25.10;59.20;;;;;;5064413;28;20033;-45
2021/07/06 04:34:02;;;;;;;1.13;0.73;;;25.10;59.20;;;;;;5070761;28;20035;-48
2021/07/06 04:36:28;;;;;;;0.82;0.70;;;25.10;59.10;;;;;;5066937;28;20079;-52
2021/07/06 04:38:54;;;;;;;1.35;0.60;;;25.10;59.20;;;;;;5067695;28;20029;-46
2021/07/06 04:41:19;;;;;;;0.90;0.80;;;25.10;59.20;;;;;;5067354;28;20096;-44
2021/07/06 04:43:45;;;;;;;0.98;0.80;;;25.10;59.20;;;;;;5066617;28;20027;-44
2021/07/06 04:46:11;;;;;;;1.80;0.95;;;25.10;59.20;;;;;;5064924;28;20458;-46
2021/07/06 04:48:36;;;;;;;1.00;0.90;;;25.10;59.10;;;;;;5067479;28;20029;-46
2021/07/06 04:51:07;;;;;;;1.13;0.65;;;25.10;59.10;;;;;;5064303;28;20447;-45
2021/07/06 04:53:33;;;;;;;0.70;0.65;;;25.10;59.20;;;;;;5061013;28;20120;-45
2021/07/06 04:56:00;;;;;;;2.25;1.00;;;25.10;59.20;;;;;;5051201;28;20116;-46
2021/07/06 04:58:26;;;;;;;0.75;0.70;;;25.10;59.20;;;;;;5065097;28;20126;-53
2021/07/06 05:00:52;;;;;;;1.75;0.80;;;25.10;59.20;;;;;;5067854;28;20049;-48
2021/07/06 05:03:17;;;;;;;0.80;0.73;;;25.10;59.20;;;;;;5067010;28;20408;-45
2021/07/06 05:05:44;;;;;;;14.27;1.83;;;25.10;59.10;;;;;;5066318;28;20427;-51
2021/07/06 05:08:11;;;;;;;0.80;0.63;;;25.10;59.10;;;;;;5066117;28;20035;-48
2021/07/06 05:10:36;;;;;;;1.45;0.80;;;25.10;59.10;;;;;;5065166;28;20037;-47
2021/07/06 05:13:02;;;;;;;1.73;0.73;;;25.10;59.10;;;;;;5067202;28;20040;-45
2021/07/06 05:15:28;;;;;;;3.22;1.00;;;25.00;58.90;;;;;;5067599;28;20118;-52
2021/07/06 05:17:53;;;;;;;3.03;1.27;;;25.00;56.60;;;;;;5068128;28;20040;-45
2021/07/06 05:20:19;;;;;;;2.97;1.52;;;24.80;56.40;;;;;;5064557;28;20450;-45
2021/07/06 05:22:45;;;;;;;2.10;1.50;;;24.60;57.10;;;;;;5056005;28;20025;-44
2021/07/06 05:25:12;;;;;;;6.63;2.33;;;24.30;57.90;;;;;;5050830;28;20037;-44
2021/07/06 05:27:38;;;;;;;5.93;1.95;;;24.00;59.10;;;;;;5058573;28;20481;-45
2021/07/06 05:30:06;;;;;;;3.42;1.90;;;23.80;60.00;;;;;;5032879;28;20037;-45
2021/07/06 05:32:32;;;;;;;6.43;2.03;;;23.80;59.90;;;;;;5051488;28;20090;-45
2021/07/06 05:34:58;;;;;;;3.35;1.83;;;23.80;59.50;;;;;;5054468;28;20033;-45
2021/07/06 05:37:23;;;;;;;6.75;1.92;;;23.70;59.50;;;;;;5064942;28;20037;-47
2021/07/06 05:39:49;;;;;;;14.90;2.38;;;23.70;59.60;;;;;;5063565;28;20124;-46
2021/07/06 05:42:15;;;;;;;4.18;1.85;;;23.70;59.50;;;;;;5073420;28;20028;-49
2021/07/06 05:44:44;;;;;;;4.25;2.00;;;23.70;59.70;;;;;;5072275;28;20048;-45
2021/07/06 05:47:09;;;;;;;5.07;1.60;;;23.70;59.70;;;;;;5058693;28;20029;-45
2021/07/06 05:49:38;;;;;;;2.10;1.23;;;23.60;59.30;;;;;;5053361;28;20466;-45
2021/07/06 05:52:07;;;;;;;3.50;1.30;;;23.60;59.30;;;;;;5053979;28;20374;-46
2021/07/06 05:54:33;;;;;;;2.53;1.40;;;23.80;58.70;;;;;;5063652;28;20025;-45
2021/07/06 05:56:58;;;;;;;1.40;0.98;;;24.00;58.10;;;;;;5035251;28;20025;-43
2021/07/06 05:59:24;;;;;;;1.67;1.30;;;23.90;58.10;;;;;;5053714;28;20449;-41
2021/07/06 06:01:50;;;;;;;3.63;1.30;;;23.90;58.30;;;;;;5035480;28;20097;-44
2021/07/06 06:04:16;;;;;;;3.10;1.80;;;24.10;58.20;;;;;;5064163;28;20024;-41
2021/07/06 06:06:42;;;;;;;4.10;1.58;;;24.20;58.00;;;;;;5067274;28;20032;-42
2021/07/06 06:09:08;;;;;;;4.45;1.83;;;24.30;57.80;;;;;;5066011;28;20487;-44
2021/07/06 06:11:33;;;;;;;8.07;1.92;;;24.30;57.70;;;;;;5072060;28;20107;-43
2021/07/06 06:14:00;;;;;;;22.85;4.18;;;24.40;57.80;;;;;;5072750;28;20025;-39
2021/07/06 06:16:25;;;;;;;19.70;3.20;;;24.40;58.20;;;;;;5060574;28;20485;-43
2021/07/06 06:18:55;;;;;;;8.77;2.03;;;24.50;58.10;;;;;;5072219;28;20024;-42
2021/07/06 06:21:25;;;;;;;4.78;1.70;;;24.10;58.30;;;;;;5054827;28;20025;-42
2021/07/06 06:23:51;;;;;;;6.93;2.10;;;24.10;58.60;;;;;;5062788;28;20020;-42
2021/07/06 06:26:17;;;;;;;7.82;2.20;;;24.30;58.50;;;;;;5066584;28;20066;-42
2021/07/06 06:29:00;;;;;;;5.72;2.17;;;24.50;58.00;;;;;;5071861;28;20032;-42
2021/07/06 06:34:47;;;;;;;6.95;1.95;;;24.70;58.10;;;;;;5040133;28;20041;-43
2021/07/06 06:37:12;;;;;;;3.42;1.77;;;24.80;58.20;;;;;;5069793;28;20031;-43
2021/07/06 06:39:39;;;;;;;3.05;1.45;;;24.80;58.10;;;;;;5073279;28;20382;-43
2021/07/06 06:42:05;;;;;;;4.00;1.80;;;24.80;58.10;;;;;;5070484;28;20029;-42
2021/07/06 06:44:31;;;;;;;4.45;1.52;;;24.80;58.10;;;;;;5071510;28;20484;-46
2021/07/06 06:46:56;;;;;;;5.45;1.90;;;24.80;58.10;;;;;;5056397;28;20120;-42
2021/07/06 06:49:22;;;;;;;3.38;1.67;;;24.80;58.10;;;;;;5052969;28;20025;-42
2021/07/06 06:51:48;;;;;;;3.60;1.80;;;24.80;58.70;;;;;;5057778;28;20133;-44
2021/07/06 06:54:13;;;;;;;5.35;2.58;;;24.80;58.00;;;;;;5072550;28;20480;-44
2021/07/06 06:56:41;;;;;;;3.67;1.50;;;24.90;58.20;;;;;;5055393;28;20037;-44
2021/07/06 06:59:07;;;;;;;4.15;1.75;;;24.90;58.20;;;;;;5060318;28;20033;-43
2021/07/06 07:01:33;;;;;;;3.63;1.58;;;24.90;58.20;;;;;;5069937;28;20032;-48
2021/07/06 07:04:00;;;;;;;3.20;1.75;;;24.90;58.20;;;;;;5053864;28;20087;-43
2021/07/06 07:06:25;;;;;;;2.15;1.27;;;24.90;58.10;;;;;;5062757;28;20032;-45
2021/07/06 07:08:51;;;;;;;3.20;1.67;;;24.90;58.30;;;;;;5071107;28;20393;-43
2021/07/06 07:11:17;;;;;;;3.75;1.40;;;24.90;58.20;;;;;;5071388;28;20077;-44
2021/07/06 07:13:42;;;;;;;2.60;1.50;;;24.90;58.20;;;;;;5069616;28;20517;-43
2021/07/06 07:16:08;;;;;;;3.80;1.25;;;25.00;58.90;;;;;;5066554;28;20098;-43
2021/07/06 07:18:34;;;;;;;2.70;1.23;;;24.90;58.20;;;;;;5064401;28;20033;-49
2021/07/06 07:20:59;;;;;;;2.90;1.15;;;25.00;58.30;;;;;;5054517;28;20029;-42
2021/07/06 07:23:25;;;;;;;3.58;1.20;;;24.90;58.20;;;;;;5064860;28;20435;-42
2021/07/06 07:25:51;;;;;;;2.67;1.60;;;25.00;58.40;;;;;;5070770;28;20059;-47
2021/07/06 07:28:16;;;;;;;2.65;1.30;;;24.90;58.30;;;;;;5061738;28;20025;-43
2021/07/06 07:30:42;;;;;;;2.88;1.63;;;24.90;58.20;;;;;;5052487;28;20489;-43
2021/07/06 07:33:08;;;;;;;5.47;1.40;;;25.00;58.20;;;;;;5068789;28;20035;-44
2021/07/06 07:35:33;;;;;;;7.32;1.85;;;25.00;58.30;;;;;;5068934;28;20041;-48
2021/07/06 07:37:59;;;;;;;3.28;1.50;;;25.00;58.40;;;;;;5071844;28;20078;-45
2021/07/06 07:40:25;;;;;;;3.30;1.58;;;25.00;58.40;;;;;;5066777;28;20463;-45
2021/07/06 07:42:50;;;;;;;2.95;1.42;;;25.00;58.40;;;;;;5056204;28;20823;-43
2021/07/06 07:45:17;;;;;;;7.15;1.60;;;25.00;58.40;;;;;;5065555;28;20029;-44
2021/07/06 07:47:43;;;;;;;3.72;1.10;;;25.00;58.40;;;;;;5064943;28;20033;-42
2021/07/06 07:50:09;;;;;;;5.93;1.50;;;25.00;58.50;;;;;;5068402;28;20488;-45
2021/07/06 07:52:35;;;;;;;2.88;1.40;;;25.00;58.40;;;;;;5057146;28;20040;-46
2021/07/06 07:55:03;;;;;;;3.30;1.50;;;25.00;58.40;;;;;;5059520;28;20115;-47
2021/07/06 07:57:29;;;;;;;3.40;1.25;;;25.00;58.40;;;;;;5068198;28;20032;-45
2021/07/06 07:59:55;;;;;;;2.45;1.33;;;25.00;58.40;;;;;;5069423;28;20167;-43
2021/07/06 08:02:22;;;;;;;1.85;1.10;;;25.00;58.50;;;;;;5060078;28;20424;-43
2021/07/06 08:04:48;;;;;;;1.75;1.02;;;25.00;58.50;;;;;;5063360;28;20086;-45
2021/07/06 08:07:14;;;;;;;2.25;1.10;;;25.00;58.50;;;;;;5053488;28;20037;-47
2021/07/06 08:09:40;;;;;;;5.57;1.73;;;25.00;58.50;;;;;;5051784;28;20033;-45
2021/07/06 08:12:06;;;;;;;3.40;1.20;;;25.00;58.50;;;;;;5051337;28;20075;-45
2021/07/06 08:14:33;;;;;;;6.45;1.30;;;25.00;58.60;;;;;;5051122;28;20033;-49
2021/07/06 08:16:59;;;;;;;3.28;1.55;;;25.00;58.60;;;;;;5060153;28;20040;-46
2021/07/06 08:19:25;;;;;;;3.55;1.10;;;25.00;58.80;;;;;;5052530;28;20033;-42
2021/07/06 08:21:51;;;;;;;3.35;1.42;;;25.10;58.70;;;;;;5050698;28;20378;-42
2021/07/06 08:24:18;;;;;;;4.32;1.20;;;25.00;58.70;;;;;;5065364;28;20025;-42
2021/07/06 08:26:44;;;;;;;2.45;1.52;;;25.10;58.90;;;;;;5069824;28;20036;-43
2021/07/06 08:29:10;;;;;;;3.15;1.08;;;25.10;59.00;;;;;;5070621;28;20105;-46
2021/07/06 08:31:36;;;;;;;2.25;1.13;;;25.10;58.90;;;;;;5067299;28;20416;-46
2021/07/06 08:34:02;;;;;;;2.47;1.58;;;25.10;58.90;;;;;;5070760;28;20158;-47
2021/07/06 08:36:28;;;;;;;2.80;1.20;;;25.10;58.90;;;;;;5052662;28;20512;-42
2021/07/06 08:38:53;;;;;;;4.47;1.23;;;25.10;59.10;;;;;;5050445;28;20021;-42
2021/07/06 08:41:19;;;;;;;1.83;1.20;;;25.10;59.00;;;;;;5057363;28;20103;-42
2021/07/06 08:43:45;;;;;;;1.73;0.93;;;25.10;59.10;;;;;;5070013;28;20103;-48
2021/07/06 08:46:19;;;;;;;2.38;1.00;;;25.10;59.10;;;;;;5058818;28;20485;-44
2021/07/06 08:48:47;;;;;;;2.25;0.90;;;25.10;59.10;;;;;;5051271;28;20091;-47
2021/07/06 08:51:18;;;;;;;1.77;1.05;;;25.10;59.10;;;;;;5053316;28;20036;-44
2021/07/06 08:53:43;;;;;;;2.25;1.13;;;25.10;59.20;;;;;;5051369;28;20381;-45
2021/07/06 08:56:09;;;;;;;2.80;1.13;;;25.10;59.20;;;;;;5051459;28;20033;-47
2021/07/06 08:58:35;;;;;;;2.95;1.27;;;25.10;59.20;;;;;;5057843;28;20033;-45
2021/07/06 09:01:02;;;;;;;2.42;0.98;;;25.10;59.20;;;;;;5065533;28;20436;-47
2021/07/06 09:03:53;;;;;;;1.77;0.77;;;25.10;59.20;;;;;;5051407;28;20033;-45
2021/07/06 09:06:20;;;;;;;1.83;0.95;;;25.10;59.20;;;;;;5054380;28;20040;-43
2021/07/06 09:08:51;;;;;;;3.95;1.10;;;25.10;59.20;;;;;;5057585;28;20044;-48
2021/07/06 09:11:18;;;;;;;2.07;1.00;;;25.10;59.20;;;;;;5056526;28;20017;-43
2021/07/06 09:13:44;;;;;;;1.70;0.88;;;25.10;59.20;;;;;;5056837;28;20029;-45
2021/07/06 09:16:22;;;;;;;1.88;1.05;;;25.10;59.30;;;;;;5054988;28;20029;-47
2021/07/06 09:18:49;;;;;;;3.65;1.38;;;25.10;59.30;;;;;;5066034;28;20031;-45
2021/07/06 09:21:15;;;;;;;1.85;0.90;;;25.10;59.30;;;;;;5072695;28;20032;-45
2021/07/06 09:23:46;;;;;;;2.47;0.90;;;25.10;59.40;;;;;;5060850;28;20498;-49
2021/07/06 09:26:24;;;;;;;2.60;1.10;;;25.10;59.40;;;;;;5068116;28;20060;-45
2021/07/06 09:28:55;;;;;;;2.78;1.00;;;25.10;59.30;;;;;;5066466;28;20063;-50
2021/07/06 09:31:32;;;;;;;1.77;1.02;;;25.10;59.30;;;;;;5056585;28;20648;-46
2021/07/06 09:34:08;;;;;;;4.95;1.20;;;25.10;59.20;;;;;;5053625;28;20480;-44
2021/07/06 09:36:48;;;;;;;2.63;0.95;;;25.10;59.30;;;;;;5054552;28;20029;-43
2021/07/06 09:39:21;;;;;;;2.53;0.90;;;25.10;59.40;;;;;;5053554;28;20053;-42
2021/07/06 09:42:28;;;;;;;3.90;0.85;;;25.10;59.40;;;;;;5055202;28;20025;-44
2021/07/06 09:45:02;;;;;;;2.35;0.73;;;25.10;59.50;;;;;;5069558;28;20032;-44
2021/07/06 09:47:28;;;;;;;2.65;0.90;;;25.10;59.60;;;;;;5072765;28;20473;-43
2021/07/06 09:49:57;;;;;;;4.18;1.27;;;25.10;59.60;;;;;;5070647;28;20039;-43
2021/07/06 09:52:24;;;;;;;2.97;1.00;;;25.10;59.70;;;;;;5058027;28;20036;-44
2021/07/06 09:54:52;;;;;;;5.38;1.00;;;25.10;59.70;;;;;;5058794;28;20089;-47
2021/07/06 09:57:29;;;;;;;1.45;0.70;;;25.10;59.70;;;;;;5067029;28;20474;-47
2021/07/06 10:00:01;;;;;;;5.03;1.65;;;25.10;59.70;;;;;;5064046;28;20057;-46
2021/07/06 10:02:29;;;;;;;2.17;1.08;;;25.10;59.70;;;;;;5065268;28;20041;-43
2021/07/06 10:04:58;;;;;;;3.92;1.15;;;25.10;59.60;;;;;;5072361;28;20436;-43
2021/07/06 10:07:24;;;;;;;3.38;0.88;;;25.10;59.60;;;;;;5061195;28;20033;-42
2021/07/06 10:09:51;;;;;;;1.40;0.90;;;25.10;59.70;;;;;;5071122;28;20073;-50
2021/07/06 10:12:18;;;;;;;1.85;0.98;;;25.00;59.60;;;;;;5063488;28;20032;-44
2021/07/06 10:14:45;;;;;;;2.42;0.98;;;25.00;59.60;;;;;;5063894;28;20032;-45
2021/07/06 10:17:11;;;;;;;1.50;0.90;;;25.10;59.70;;;;;;5068944;28;20059;-43
2021/07/06 10:19:42;;;;;;;3.05;0.82;;;25.10;59.80;;;;;;5057738;28;20470;-45
2021/07/06 10:22:09;;;;;;;1.57;0.87;;;25.00;59.60;;;;;;5053056;28;20454;-46
2021/07/06 10:24:44;;;;;;;1.20;0.73;;;25.10;59.60;;;;;;5053172;28;20071;-50
2021/07/06 10:27:26;;;;;;;2.38;0.90;;;25.10;59.50;;;;;;5053096;28;20037;-47
2021/07/06 10:30:19;;;;;;;2.33;0.80;;;25.10;59.50;;;;;;5043468;28;20047;-52
2021/07/06 10:32:53;;;;;;;2.55;0.95;;;25.10;59.40;;;;;;5071456;28;20367;-43
2021/07/06 10:35:40;;;;;;;2.85;1.00;;;25.10;59.50;;;;;;5067664;28;20029;-44
2021/07/06 10:41:01;;;;;;;2.10;0.65;;;25.20;59.30;;;;;;5072303;28;20457;-50
2021/07/06 10:43:31;;;;;;;1.73;0.80;;;25.10;59.90;;;;;;5061156;28;20037;-43
2021/07/06 10:46:29;;;;;;;2.13;1.38;;;25.20;60.40;;;;;;5054996;28;20120;-44
2021/07/06 10:49:06;;;;;;;2.95;0.80;;;25.10;60.20;;;;;;5053471;28;20037;-50
2021/07/06 10:51:34;;;;;;;2.55;0.93;;;25.10;60.10;;;;;;5052919;28;20059;-44
2021/07/06 10:54:19;;;;;;;1.33;0.60;;;25.20;60.20;;;;;;5051862;28;20032;-45
2021/07/06 10:56:49;;;;;;;1.25;0.55;;;25.10;60.20;;;;;;5060789;28;20048;-46
2021/07/06 10:59:35;;;;;;;1.77;0.85;;;25.10;60.10;;;;;;5052283;28;20033;-43
2021/07/06 11:02:22;;;;;;;3.17;0.90;;;25.10;60.20;;;;;;5069950;28;20048;-44
2021/07/06 11:04:51;;;;;;;2.45;0.82;;;25.10;60.10;;;;;;5071566;28;20370;-46
2021/07/06 11:07:40;;;;;;;2.25;1.00;;;25.10;60.20;;;;;;5071395;28;20037;-49
2021/07/06 11:10:08;;;;;;;2.97;0.90;;;25.10;60.20;;;;;;5053404;28;20033;-44
2021/07/06 11:12:37;;;;;;;1.73;0.82;;;25.10;60.20;;;;;;5068055;28;20108;-47
2021/07/06 11:15:12;;;;;;;1.38;0.60;;;25.10;60.20;;;;;;5051674;28;20382;-43
2021/07/06 11:17:40;;;;;;;1.77;0.52;;;25.10;60.20;;;;;;5070859;28;20043;-45
2021/07/06 11:20:17;;;;;;;2.88;0.88;;;25.10;60.20;;;;;;5066355;28;20032;-44
2021/07/06 11:22:48;;;;;;;1.73;0.73;;;25.10;60.10;;;;;;5062667;28;20493;-44
2021/07/06 11:25:38;;;;;;;1.58;0.75;;;25.10;60.20;;;;;;5051211;28;20211;-46
2021/07/06 11:28:06;;;;;;;1.85;0.80;;;25.10;60.30;;;;;;5055740;28;20556;-44
2021/07/06 11:30:35;;;;;;;1.25;0.60;;;25.10;60.20;;;;;;5070573;28;20040;-47
2021/07/06 11:33:01;;;;;;;1.20;0.65;;;25.10;60.20;;;;;;5059936;28;20394;-43
2021/07/06 11:35:29;;;;;;;1.58;0.80;;;25.10;60.20;;;;;;5052082;28;20029;-44
2021/07/06 11:37:55;;;;;;;0.90;0.57;;;25.10;60.20;;;;;;5034514;28;20027;-46
2021/07/06 11:40:21;;;;;;;1.13;0.73;;;25.10;60.30;;;;;;5051155;28;20401;-43
2021/07/06 11:42:47;;;;;;;1.33;0.80;;;25.10;60.20;;;;;;5052243;28;20029;-49
2021/07/06 11:45:13;;;;;;;1.58;0.73;;;25.10;60.20;;;;;;5054470;28;20465;-47
2021/07/06 11:47:38;;;;;;;1.17;0.63;;;25.10;60.40;;;;;;5053002;28;20073;-44
2021/07/06 11:50:23;;;;;;;1.25;0.70;;;25.10;60.30;;;;;;5052897;28;20119;-44
2021/07/06 11:52:49;;;;;;;1.10;0.70;;;25.10;60.30;;;;;;5071482;28;20089;-46
2021/07/06 11:55:32;;;;;;;2.35;0.63;;;25.10;60.20;;;;;;5068538;28;20040;-44
2021/07/06 11:57:59;;;;;;;4.22;1.15;;;25.10;60.20;;;;;;5070418;28;20457;-45
2021/07/06 12:00:27;;;;;;;1.25;0.70;;;25.10;60.20;;;;;;5062202;28;20318;-46
2021/07/06 12:03:29;;;;;;;1.45;0.70;;;25.20;60.30;;;;;;5060673;28;20040;-48
2021/07/06 12:06:06;;;;;;;1.55;0.70;;;25.10;60.20;;;;;;5053124;28;20036;-49
2021/07/06 12:08:37;;;;;;;1.00;0.60;;;25.10;60.20;;;;;;5054255;28;20385;-44
2021/07/06 12:11:07;;;;;;;2.83;0.77;;;25.10;60.30;;;;;;5051867;28;20033;-48
2021/07/06 12:13:55;;;;;;;0.80;0.60;;;25.10;60.40;;;;;;5063330;28;20025;-46
2021/07/06 12:16:28;;;;;;;1.02;0.60;;;25.10;60.40;;;;;;5063845;28;21332;-44
2021/07/06 12:19:10;;;;;;;1.60;0.47;;;25.10;60.40;;;;;;5051231;28;20025;-47
2021/07/06 12:21:46;;;;;;;1.77;0.70;;;25.10;60.40;;;;;;5066133;28;20389;-44
2021/07/06 12:24:14;;;;;;;1.00;0.60;;;25.10;60.30;;;;;;5068554;28;20111;-43
2021/07/06 12:26:41;;;;;;;2.58;0.63;;;25.10;60.30;;;;;;5064325;28;20040;-43
2021/07/06 12:29:07;;;;;;;0.75;0.60;;;25.10;60.30;;;;;;5050937;28;20374;-45
2021/07/06 12:31:35;;;;;;;1.95;0.43;;;25.10;60.30;;;;;;5060663;28;20393;-43
2021/07/06 12:34:08;;;;;;;0.85;0.60;;;25.10;60.30;;;;;;5055830;28;20112;-43
2021/07/06 12:36:37;;;;;;;1.30;0.52;;;25.10;60.40;;;;;;5052186;28;20040;-46
2021/07/06 12:39:12;;;;;;;0.70;0.60;;;25.10;60.30;;;;;;5059649;28;20032;-43
2021/07/06 12:41:55;;;;;;;0.88;0.50;;;25.20;60.40;;;;;;5053789;28;20155;-43
2021/07/06 12:44:38;;;;;;;0.57;0.50;;;25.20;60.40;;;;;;5056710;28;20033;-43
2021/07/06 12:47:27;;;;;;;0.52;0.40;;;25.20;60.40;;;;;;5058947;28;20028;-44
2021/07/06 12:50:14;;;;;;;1.27;0.60;;;25.10;60.30;;;;;;5063695;28;20101;-43
2021/07/06 12:52:45;;;;;;;1.40;0.77;;;25.10;60.30;;;;;;5058447;28;20432;-44
2021/07/06 12:55:14;;;;;;;0.50;0.43;;;25.20;60.40;;;;;;5064865;28;20347;-45
2021/07/06 12:57:41;;;;;;;0.98;0.60;;;25.10;60.30;;;;;;5056872;28;20037;-47
2021/07/06 13:00:19;;;;;;;1.00;0.60;;;25.10;60.40;;;;;;5062941;28;20444;-43